Time;durP1;ratioP1;P1;durP2;ratioP2;P2;SDS_P1;SDS_P2;PMS_P1;PMS_P2;Temp;Humidity;BMP_temperature;BMP_pressure;BME280_temperature;BME280_humidity;BME280_pressure;Samples;Min_cycle;Max_cycle;Signal;HPM_P1;HPM_P2
2023/09/21 00:00:20;;;;;;;1.30;1.20;;;;;;;18.30;69.59;99720.25;5047330;28;20557;-79
2023/09/21 00:02:51;;;;;;;2.60;1.20;;;;;;;18.28;69.97;99719.56;5046408;28;20219;-78
2023/09/21 00:05:19;;;;;;;2.97;1.33;;;;;;;18.24;70.03;99712.84;5048975;28;20676;-78
2023/09/21 00:07:45;;;;;;;1.30;1.17;;;;;;;18.18;70.49;99705.44;5048424;28;20207;-78
2023/09/21 00:10:13;;;;;;;2.70;1.60;;;;;;;18.15;70.65;99711.16;5047385;28;20228;-79
2023/09/21 00:12:41;;;;;;;2.30;1.57;;;;;;;18.07;71.01;99708.47;5044049;28;20241;-78
2023/09/21 00:15:12;;;;;;;2.67;1.40;;;;;;;18.03;71.19;99711.50;5050053;28;20212;-78
2023/09/21 00:17:39;;;;;;;2.37;1.57;;;;;;;18.00;71.34;99705.59;5043117;28;20209;-76
2023/09/21 00:20:11;;;;;;;2.07;1.70;;;;;;;17.95;71.82;99703.38;5047978;28;20713;-81
2023/09/21 00:22:37;;;;;;;1.47;1.23;;;;;;;17.92;71.98;99692.94;5045165;28;20211;-78
2023/09/21 00:25:04;;;;;;;2.23;1.37;;;;;;;17.89;72.30;99696.00;5045861;28;20212;-78
2023/09/21 00:27:31;;;;;;;2.17;1.37;;;;;;;17.83;72.26;99688.56;5047384;28;20215;-79
2023/09/21 00:30:01;;;;;;;3.53;1.30;;;;;;;17.82;72.50;99689.59;5050358;28;20270;-79
2023/09/21 00:32:28;;;;;;;1.90;1.30;;;;;;;17.80;72.62;99694.28;5048886;28;20242;-78
2023/09/21 00:34:54;;;;;;;2.87;1.53;;;;;;;17.78;72.37;99684.69;5048871;28;20735;-78
2023/09/21 00:37:21;;;;;;;1.87;1.40;;;;;;;17.75;72.63;99688.56;5046680;28;20588;-79
2023/09/21 00:39:48;;;;;;;1.33;1.10;;;;;;;17.73;72.48;99687.06;5048876;28;20223;-80
2023/09/21 00:42:15;;;;;;;1.47;1.20;;;;;;;17.74;72.38;99675.25;5042152;28;20207;-78
2023/09/21 00:44:42;;;;;;;2.63;1.30;;;;;;;17.75;72.13;99668.84;5050279;28;20200;-79
2023/09/21 00:47:09;;;;;;;3.00;1.53;;;;;;;17.74;72.02;99668.00;5052184;28;20731;-77
2023/09/21 00:49:38;;;;;;;2.50;1.30;;;;;;;17.75;71.95;99669.69;5049990;28;20237;-80
2023/09/21 00:52:06;;;;;;;1.90;1.10;;;;;;;17.78;71.91;99663.16;5047096;28;20266;-78
2023/09/21 00:54:32;;;;;;;1.13;1.03;;;;;;;17.76;72.09;99657.91;5044917;28;20733;-77
2023/09/21 00:57:00;;;;;;;2.60;1.50;;;;;;;17.78;72.11;99657.75;5049334;28;20207;-79
2023/09/21 00:59:27;;;;;;;3.07;1.47;;;;;;;17.77;72.13;99648.00;5049515;28;20228;-78
2023/09/21 01:01:57;;;;;;;1.70;1.37;;;;;;;17.75;72.25;99650.84;5045893;28;20203;-80
2023/09/21 01:04:26;;;;;;;3.83;1.50;;;;;;;17.76;72.17;99641.75;5048041;28;20208;-79
2023/09/21 01:06:52;;;;;;;2.97;1.13;;;;;;;17.74;71.90;99641.09;5040734;28;20209;-80
2023/09/21 01:09:19;;;;;;;3.60;1.43;;;;;;;17.74;71.78;99643.78;5046625;28;20236;-79
2023/09/21 01:11:46;;;;;;;3.37;1.67;;;;;;;17.78;71.30;99649.69;5038927;28;20270;-79
2023/09/21 01:14:12;;;;;;;2.80;1.77;;;;;;;17.80;71.16;99645.81;5041567;28;20213;-78
2023/09/21 01:16:39;;;;;;;2.27;1.20;;;;;;;17.83;70.81;99639.25;5047527;28;20210;-79
2023/09/21 01:19:06;;;;;;;2.87;1.70;;;;;;;17.87;70.61;99646.00;5043557;28;20266;-80
2023/09/21 01:21:37;;;;;;;3.17;1.53;;;;;;;17.88;70.29;99639.59;5049204;28;21562;-79
2023/09/21 01:24:06;;;;;;;1.73;1.50;;;;;;;17.89;70.17;99644.81;5048073;28;20212;-77
2023/09/21 01:26:33;;;;;;;1.70;1.30;;;;;;;17.89;69.84;99646.66;5047758;28;20211;-79
2023/09/21 01:29:01;;;;;;;2.43;1.50;;;;;;;17.90;69.79;99649.19;5044318;28;20804;-78
2023/09/21 01:31:29;;;;;;;2.47;1.50;;;;;;;17.95;69.62;99644.13;5047219;28;20238;-78
2023/09/21 01:33:58;;;;;;;2.20;1.60;;;;;;;17.95;69.47;99637.91;5050816;28;20638;-78
2023/09/21 01:36:25;;;;;;;3.37;1.70;;;;;;;17.97;69.33;99638.56;5048031;28;20215;-78
2023/09/21 01:38:52;;;;;;;1.77;1.40;;;;;;;17.97;69.31;99635.88;5044404;28;20324;-78
2023/09/21 01:41:21;;;;;;;2.27;1.60;;;;;;;17.95;69.41;99633.34;5048821;28;20210;-77
2023/09/21 01:43:48;;;;;;;1.53;1.20;;;;;;;17.94;69.34;99638.91;5041855;28;20220;-78
2023/09/21 01:46:18;;;;;;;2.40;1.50;;;;;;;17.92;69.30;99627.44;5045609;28;20216;-78
2023/09/21 01:48:45;;;;;;;3.20;1.60;;;;;;;17.89;69.40;99627.81;5042145;28;20247;-78
2023/09/21 01:51:12;;;;;;;1.87;1.60;;;;;;;17.85;69.63;99627.31;5042968;28;21058;-79
2023/09/21 01:53:39;;;;;;;3.13;1.40;;;;;;;17.83;69.44;99618.53;5047347;28;20682;-78
2023/09/21 01:56:07;;;;;;;2.27;1.60;;;;;;;17.80;69.84;99618.88;5044514;28;20718;-79
2023/09/21 01:58:34;;;;;;;1.63;1.40;;;;;;;17.75;69.84;99613.16;5045471;28;20314;-78
2023/09/21 02:01:03;;;;;;;1.83;1.33;;;;;;;17.73;70.05;99609.81;5042637;28;20207;-78
2023/09/21 02:03:31;;;;;;;2.17;1.60;;;;;;;17.67;70.23;99603.22;5042429;28;20210;-78
2023/09/21 02:06:01;;;;;;;1.40;1.20;;;;;;;17.62;70.30;99604.69;5044207;28;20210;-79
2023/09/21 02:08:27;;;;;;;3.07;1.60;;;;;;;17.60;70.46;99602.16;5047868;28;20673;-79
2023/09/21 02:10:54;;;;;;;1.73;1.30;;;;;;;17.56;70.64;99605.34;5042336;28;20214;-78
2023/09/21 02:13:20;;;;;;;1.90;1.30;;;;;;;17.53;70.63;99593.09;5047091;28;20212;-78
2023/09/21 02:15:51;;;;;;;2.60;1.53;;;;;;;17.49;70.74;99596.28;5047741;28;20214;-78
2023/09/21 02:18:19;;;;;;;2.17;1.40;;;;;;;17.48;70.65;99598.13;5038585;28;20657;-79
2023/09/21 02:20:45;;;;;;;2.50;1.60;;;;;;;17.45;70.73;99584.16;5041692;28;20306;-80
2023/09/21 02:23:12;;;;;;;4.70;1.70;;;;;;;17.45;70.48;99584.16;5045134;28;20215;-79
2023/09/21 02:25:41;;;;;;;3.27;1.97;;;;;;;17.45;70.21;99579.63;5045574;28;20208;-78
2023/09/21 02:28:11;;;;;;;2.27;1.43;;;;;;;17.45;70.11;99581.47;5044703;28;20238;-78
2023/09/21 02:30:40;;;;;;;2.30;1.70;;;;;;;17.43;70.03;99583.50;5046231;28;20255;-78
2023/09/21 02:33:09;;;;;;;2.40;1.60;;;;;;;17.42;69.88;99585.34;5044903;28;20208;-78
2023/09/21 02:35:41;;;;;;;2.27;1.60;;;;;;;17.43;69.60;99570.03;5046222;28;20213;-80
2023/09/21 02:38:09;;;;;;;3.70;1.70;;;;;;;17.43;69.77;99578.09;5044520;28;20264;-79
2023/09/21 02:40:36;;;;;;;2.23;1.53;;;;;;;17.44;69.34;99571.72;5047969;28;20231;-76
2023/09/21 02:43:03;;;;;;;2.17;1.60;;;;;;;17.44;69.19;99569.03;5044631;28;20223;-78
2023/09/21 02:45:29;;;;;;;3.97;2.20;;;;;;;17.43;69.04;99568.19;5044886;28;20213;-78
2023/09/21 02:47:59;;;;;;;3.10;1.60;;;;;;;17.44;68.85;99566.31;5043145;28;20656;-78
2023/09/21 02:50:28;;;;;;;3.33;1.90;;;;;;;17.43;68.85;99554.72;5045746;28;20231;-78
2023/09/21 02:52:56;;;;;;;3.43;1.60;;;;;;;17.43;68.88;99553.88;5042294;28;20234;-78
2023/09/21 02:55:23;;;;;;;2.03;1.70;;;;;;;17.40;68.69;99546.97;5044402;28;20218;-78
2023/09/21 02:57:55;;;;;;;2.30;1.80;;;;;;;17.39;68.73;99549.84;5043527;28;20211;-79
2023/09/21 03:00:26;;;;;;;2.73;1.73;;;;;;;17.38;68.75;99548.19;5041533;28;20220;-79
2023/09/21 03:02:53;;;;;;;2.37;1.60;;;;;;;17.36;68.55;99540.28;5045756;28;20209;-79
2023/09/21 03:05:21;;;;;;;2.50;1.67;;;;;;;17.35;68.68;99541.28;5048501;28;20611;-79
2023/09/21 03:07:49;;;;;;;2.03;1.40;;;;;;;17.33;68.51;99541.44;5045951;28;20201;-80
2023/09/21 03:10:17;;;;;;;2.73;1.83;;;;;;;17.34;68.39;99532.34;5046578;28;20698;-78
2023/09/21 03:12:47;;;;;;;2.13;1.50;;;;;;;17.33;68.37;99541.44;5045079;28;20219;-78
2023/09/21 03:15:15;;;;;;;3.10;1.77;;;;;;;17.29;68.56;99541.94;5049755;28;20786;-78
2023/09/21 03:17:42;;;;;;;2.47;1.80;;;;;;;17.28;68.70;99542.94;5048016;28;20297;-78
2023/09/21 03:20:28;;;;;;;2.90;1.73;;;;;;;17.26;68.39;99540.41;5046948;28;20712;-78
2023/09/21 03:22:57;;;;;;;2.70;1.70;;;;;;;17.25;68.31;99533.34;5047236;28;20217;-78
2023/09/21 03:25:28;;;;;;;2.47;1.97;;;;;;;17.27;68.37;99525.94;5046517;28;20660;-77
2023/09/21 03:27:55;;;;;;;2.40;1.60;;;;;;;17.25;68.31;99535.19;5050219;28;20210;-80
2023/09/21 03:30:23;;;;;;;2.53;1.87;;;;;;;17.26;68.33;99529.66;5049531;28;20277;-77
2023/09/21 03:32:50;;;;;;;2.43;1.50;;;;;;;17.25;68.41;99527.13;5046075;28;20646;-77
2023/09/21 03:35:17;;;;;;;2.80;1.80;;;;;;;17.24;68.28;99530.81;5051629;28;20591;-78
2023/09/21 03:37:45;;;;;;;3.57;1.93;;;;;;;17.22;68.39;99528.28;5045069;28;20576;-79
2023/09/21 03:40:13;;;;;;;2.10;1.50;;;;;;;17.23;68.51;99524.59;5049884;28;20251;-80
2023/09/21 03:42:40;;;;;;;3.40;1.87;;;;;;;17.21;68.45;99523.06;5047190;28;20665;-78
2023/09/21 03:45:09;;;;;;;1.83;1.60;;;;;;;17.20;68.35;99524.09;5049546;28;20217;-78
2023/09/21 03:47:36;;;;;;;2.60;2.10;;;;;;;17.18;68.60;99516.19;5049553;28;20237;-78
2023/09/21 03:50:05;;;;;;;2.90;1.70;;;;;;;17.18;68.80;99520.75;5045741;28;20311;-80
2023/09/21 03:52:32;;;;;;;2.53;2.00;;;;;;;17.15;68.88;99505.78;5051401;28;20253;-79
2023/09/21 03:55:00;;;;;;;3.17;1.40;;;;;;;17.16;68.96;99515.53;5050874;28;20207;-78
2023/09/21 03:57:28;;;;;;;3.00;1.80;;;;;;;17.13;69.22;99507.78;5049506;28;20205;-78
2023/09/21 03:59:57;;;;;;;2.40;1.63;;;;;;;17.11;69.13;99504.41;5047779;28;20297;-80
2023/09/21 04:02:24;;;;;;;4.60;1.80;;;;;;;17.11;69.19;99501.72;5046008;28;20197;-78
2023/09/21 04:04:51;;;;;;;2.90;1.90;;;;;;;17.11;69.07;99506.25;5047845;28;20231;-78
2023/09/21 04:07:19;;;;;;;3.13;1.57;;;;;;;17.08;69.25;99501.22;5050162;28;20580;-76
2023/09/21 04:09:45;;;;;;;4.37;1.60;;;;;;;17.09;69.23;99492.13;5049697;28;20226;-79
2023/09/21 04:12:12;;;;;;;3.40;1.90;;;;;;;17.08;69.28;99491.28;5049001;28;20229;-78
2023/09/21 04:14:44;;;;;;;4.03;1.80;;;;;;;17.09;69.10;99501.03;5051162;28;20208;-77
2023/09/21 04:17:10;;;;;;;3.43;1.90;;;;;;;17.07;69.33;99491.47;5046280;28;20211;-78
2023/09/21 04:19:37;;;;;;;1.87;1.60;;;;;;;17.07;69.27;99489.59;5046265;28;20235;-78
2023/09/21 04:22:03;;;;;;;2.70;1.67;;;;;;;17.06;69.57;99493.31;5046550;28;20223;-79
2023/09/21 04:24:31;;;;;;;2.50;1.70;;;;;;;17.07;69.53;99497.69;5048863;28;20209;-78
2023/09/21 04:26:58;;;;;;;4.57;1.80;;;;;;;17.08;69.61;99485.91;5046133;28;20252;-78
2023/09/21 04:29:24;;;;;;;2.07;1.57;;;;;;;17.07;69.70;99480.69;5046402;28;20234;-79
2023/09/21 04:31:52;;;;;;;2.93;1.70;;;;;;;17.08;69.78;99491.28;5048815;28;20255;-78
2023/09/21 04:34:19;;;;;;;2.33;1.70;;;;;;;17.06;70.02;99482.53;5047561;28;20588;-77
2023/09/21 04:36:47;;;;;;;2.50;1.90;;;;;;;17.08;69.97;99487.75;5048078;28;20233;-79
2023/09/21 04:39:15;;;;;;;6.63;1.63;;;;;;;17.05;70.00;99483.56;5046759;28;20229;-78
2023/09/21 04:41:41;;;;;;;4.57;2.10;;;;;;;17.05;70.23;99480.84;5045558;28;20214;-77
2023/09/21 04:44:08;;;;;;;2.97;1.70;;;;;;;17.06;70.29;99471.78;5046337;28;20210;-78
2023/09/21 04:46:36;;;;;;;3.20;1.90;;;;;;;17.06;70.49;99479.84;5048017;28;20216;-79
2023/09/21 04:49:04;;;;;;;6.53;2.10;;;;;;;17.07;70.36;99476.16;5037810;28;20227;-78
2023/09/21 04:51:31;;;;;;;2.20;1.83;;;;;;;17.08;70.36;99471.63;5041179;28;21358;-79
2023/09/21 04:53:57;;;;;;;2.70;1.70;;;;;;;17.07;70.59;99475.31;5035891;28;20217;-79
2023/09/21 04:56:24;;;;;;;4.63;2.00;;;;;;;17.08;70.73;99475.16;5043230;28;20205;-77
2023/09/21 04:58:52;;;;;;;2.20;1.50;;;;;;;17.10;70.75;99475.81;5041717;28;20227;-79
2023/09/21 05:01:20;;;;;;;4.90;1.80;;;;;;;17.10;70.97;99472.28;5049048;28;20799;-79
2023/09/21 05:03:46;;;;;;;3.07;1.80;;;;;;;17.10;71.11;99467.75;5048487;28;20199;-79
2023/09/21 05:06:14;;;;;;;4.10;1.67;;;;;;;17.09;71.09;99459.84;5044269;28;20217;-79
2023/09/21 05:08:41;;;;;;;3.57;1.70;;;;;;;17.10;71.42;99458.84;5045043;28;20216;-77
2023/09/21 05:11:07;;;;;;;3.33;2.10;;;;;;;17.10;71.54;99459.69;5048981;28;20207;-76
2023/09/21 05:13:34;;;;;;;2.93;2.07;;;;;;;17.08;71.83;99474.31;5043100;28;20667;-78
2023/09/21 05:16:00;;;;;;;1.83;1.67;;;;;;;17.05;72.07;99477.31;5047054;28;20673;-79
2023/09/21 05:18:27;;;;;;;3.50;1.87;;;;;;;17.03;72.25;99480.19;5047572;28;20214;-78
2023/09/21 05:20:53;;;;;;;2.53;1.40;;;;;;;17.02;72.57;99476.66;5044878;28;20218;-79
2023/09/21 05:23:21;;;;;;;3.70;2.00;;;;;;;17.04;72.55;99476.47;5044225;28;20198;-79
2023/09/21 05:25:48;;;;;;;2.87;1.50;;;;;;;17.05;72.71;99467.41;5046710;28;20213;-78
2023/09/21 05:28:16;;;;;;;4.20;2.20;;;;;;;17.07;72.67;99470.78;5044498;28;20212;-78
2023/09/21 05:30:43;;;;;;;3.40;1.73;;;;;;;17.09;72.79;99458.00;5045732;28;20283;-75
2023/09/21 05:33:10;;;;;;;2.60;1.90;;;;;;;17.13;72.71;99463.91;5042894;28;20225;-78
2023/09/21 05:35:36;;;;;;;2.30;1.40;;;;;;;17.15;72.81;99467.25;5050747;28;20210;-80
2023/09/21 05:38:05;;;;;;;2.17;1.40;;;;;;;17.18;72.97;99461.56;5049872;28;20210;-79
2023/09/21 05:40:33;;;;;;;1.93;1.60;;;;;;;17.20;72.99;99459.50;5045690;28;20222;-79
2023/09/21 05:43:00;;;;;;;2.57;1.80;;;;;;;17.21;72.97;99462.03;5049664;28;20221;-78
2023/09/21 05:45:27;;;;;;;4.10;1.70;;;;;;;17.22;72.98;99468.25;5045779;28;20204;-80
2023/09/21 05:47:53;;;;;;;3.50;1.77;;;;;;;17.25;73.14;99463.38;5049342;28;20255;-78
2023/09/21 05:50:20;;;;;;;2.47;1.63;;;;;;;17.28;73.00;99463.06;5045286;28;20234;-79
2023/09/21 05:52:46;;;;;;;3.53;2.10;;;;;;;17.31;73.09;99464.56;5043799;28;20228;-78
2023/09/21 05:55:13;;;;;;;5.23;1.87;;;;;;;17.32;72.95;99452.78;5047745;28;20202;-77
2023/09/21 05:57:43;;;;;;;1.80;1.70;;;;;;;17.33;72.99;99455.31;5047706;28;20735;-79
2023/09/21 06:00:11;;;;;;;3.67;1.93;;;;;;;17.38;72.91;99453.97;5050216;28;20229;-78
2023/09/21 06:02:38;;;;;;;2.13;1.93;;;;;;;17.39;72.84;99451.09;5049601;28;20790;-80
2023/09/21 06:05:06;;;;;;;2.97;1.60;;;;;;;17.42;72.81;99452.59;5048685;28;20667;-79
2023/09/21 06:07:34;;;;;;;2.80;1.47;;;;;;;17.47;72.67;99458.31;5049921;28;20654;-78
2023/09/21 06:10:01;;;;;;;1.93;1.60;;;;;;;17.48;72.92;99452.78;5048349;28;20769;-81
2023/09/21 06:12:27;;;;;;;2.33;1.70;;;;;;;17.52;72.75;99461.34;5046474;28;20232;-80
2023/09/21 06:14:58;;;;;;;3.93;1.80;;;;;;;17.54;72.64;99451.25;5045037;28;20218;-79
2023/09/21 06:17:24;;;;;;;3.07;1.70;;;;;;;17.58;72.43;99448.03;5048561;28;20202;-79
2023/09/21 06:19:52;;;;;;;3.23;1.83;;;;;;;17.62;72.27;99454.75;5048230;28;20226;-79
2023/09/21 06:22:18;;;;;;;1.73;1.47;;;;;;;17.66;72.25;99447.22;5046837;28;20224;-78
2023/09/21 06:24:45;;;;;;;2.37;1.60;;;;;;;17.72;72.14;99453.78;5038893;28;20209;-80
2023/09/21 06:27:12;;;;;;;3.70;1.70;;;;;;;17.76;71.90;99442.47;5043912;28;20565;-81
2023/09/21 06:29:38;;;;;;;2.23;1.67;;;;;;;17.80;71.71;99438.44;5048098;28;20227;-80
2023/09/21 06:32:07;;;;;;;2.53;1.60;;;;;;;17.84;71.98;99433.53;5044483;28;20204;-80
2023/09/21 06:34:34;;;;;;;2.27;1.60;;;;;;;17.89;71.58;99436.56;5047031;28;20291;-81
2023/09/21 06:37:00;;;;;;;2.53;2.00;;;;;;;17.94;71.63;99439.56;5048706;28;20576;-81
2023/09/21 06:39:28;;;;;;;2.20;1.60;;;;;;;17.98;71.78;99433.66;5049803;28;20638;-80
2023/09/21 06:41:54;;;;;;;1.70;1.40;;;;;;;18.03;71.61;99438.53;5044720;28;20223;-79
2023/09/21 06:44:21;;;;;;;2.83;1.93;;;;;;;18.09;71.70;99435.16;5051240;28;20211;-80
2023/09/21 06:46:47;;;;;;;2.00;1.70;;;;;;;18.14;71.64;99424.66;5052992;28;20211;-80
2023/09/21 06:49:15;;;;;;;2.63;1.70;;;;;;;18.20;71.42;99425.84;5051231;28;20227;-78
2023/09/21 06:51:41;;;;;;;2.50;1.77;;;;;;;18.26;71.44;99434.06;5049832;28;20204;-79
2023/09/21 06:54:08;;;;;;;2.70;2.07;;;;;;;18.34;70.91;99430.47;5051466;28;20223;-79
2023/09/21 06:56:34;;;;;;;3.30;1.37;;;;;;;18.41;70.97;99423.38;5046695;28;20237;-80
2023/09/21 06:59:01;;;;;;;2.90;1.60;;;;;;;18.45;70.98;99418.47;5051923;28;20735;-80
2023/09/21 07:01:28;;;;;;;2.70;1.50;;;;;;;18.52;70.62;99427.50;5047069;28;20220;-80
2023/09/21 07:03:54;;;;;;;3.90;1.77;;;;;;;18.60;70.41;99417.56;5049516;28;20266;-78
2023/09/21 07:06:22;;;;;;;4.03;1.90;;;;;;;18.67;70.28;99418.50;5047399;28;20204;-79
2023/09/21 07:08:49;;;;;;;2.90;1.90;;;;;;;18.73;69.59;99420.50;5046972;28;20244;-78
2023/09/21 07:11:19;;;;;;;3.60;1.57;;;;;;;18.82;69.30;99421.25;5051628;28;20208;-80
2023/09/21 07:13:46;;;;;;;3.23;1.70;;;;;;;18.92;68.72;99418.34;5046610;28;20247;-80
2023/09/21 07:16:13;;;;;;;2.00;1.40;;;;;;;19.00;68.29;99413.69;5045210;28;20209;-80
2023/09/21 07:18:39;;;;;;;4.13;1.80;;;;;;;19.11;68.11;99412.44;5046021;28;20291;-78
2023/09/21 07:21:06;;;;;;;2.40;1.40;;;;;;;19.24;67.00;99414.53;5045469;28;20661;-79
2023/09/21 07:23:34;;;;;;;2.77;1.60;;;;;;;19.34;67.12;99405.16;5044876;28;20203;-80
2023/09/21 07:26:01;;;;;;;2.70;1.53;;;;;;;19.48;66.75;99408.06;5044169;28;20829;-80
2023/09/21 07:28:30;;;;;;;2.40;1.60;;;;;;;19.59;66.35;99402.22;5046085;28;20674;-79
2023/09/21 07:30:56;;;;;;;2.10;1.83;;;;;;;19.71;65.60;99406.13;5048113;28;20208;-80
2023/09/21 07:33:23;;;;;;;2.17;1.37;;;;;;;19.85;65.22;99393.66;5051181;28;20225;-79
2023/09/21 07:35:50;;;;;;;2.10;1.50;;;;;;;20.00;64.90;99391.78;5049414;28;20214;-79
2023/09/21 07:38:18;;;;;;;2.90;1.53;;;;;;;20.12;64.71;99392.97;5047462;28;20214;-78
2023/09/21 07:40:46;;;;;;;2.88;1.48;;;;;;;20.29;64.44;99385.47;5047313;28;20227;-80
2023/09/21 07:43:13;;;;;;;1.67;1.23;;;;;;;20.45;63.56;99388.00;5049165;28;20242;-80
2023/09/21 07:45:39;;;;;;;2.60;1.88;;;;;;;20.64;63.51;99391.94;5045421;28;20204;-81
2023/09/21 07:48:06;;;;;;;1.52;1.42;;;;;;;20.82;62.13;99399.59;5048952;28;20215;-80
2023/09/21 07:50:34;;;;;;;2.63;1.55;;;;;;;20.96;61.66;99404.16;5049474;28;20237;-79
2023/09/21 07:53:03;;;;;;;2.47;1.50;;;;;;;21.11;61.22;99394.06;5049413;28;20260;-79
2023/09/21 07:55:30;;;;;;;2.85;1.42;;;;;;;21.22;59.74;99401.69;5040640;28;20280;-79
2023/09/21 07:57:58;;;;;;;2.17;1.70;;;;;;;21.30;59.92;99398.84;5047959;28;20208;-80
2023/09/21 08:00:24;;;;;;;3.75;1.50;;;;;;;21.40;59.05;99398.50;5048464;28;20808;-81
2023/09/21 08:02:51;;;;;;;1.98;1.20;;;;;;;21.42;58.65;99386.44;5049112;28;20361;-80
2023/09/21 08:05:18;;;;;;;2.60;1.60;;;;;;;21.45;58.62;99383.34;5047823;28;20680;-81
2023/09/21 08:07:45;;;;;;;3.13;1.40;;;;;;;21.47;58.34;99385.84;5045358;28;20224;-80
2023/09/21 08:10:12;;;;;;;2.78;1.40;;;;;;;21.47;58.42;99386.69;5050331;28;20229;-80
2023/09/21 08:12:41;;;;;;;4.00;1.67;;;;;;;21.52;58.25;99377.09;5059068;28;20199;-81
2023/09/21 08:15:11;;;;;;;2.55;1.63;;;;;;;21.60;58.17;99379.66;5050987;28;20759;-81
2023/09/21 08:17:38;;;;;;;1.45;1.30;;;;;;;21.66;57.47;99376.19;5052823;28;20743;-82
2023/09/21 08:20:09;;;;;;;3.60;1.60;;;;;;;21.71;58.13;99385.34;5049479;28;20824;-81
2023/09/21 08:22:35;;;;;;;2.47;1.30;;;;;;;21.83;58.44;99382.94;5053304;28;20732;-80
2023/09/21 08:25:02;;;;;;;2.30;1.58;;;;;;;21.90;57.54;99380.25;5054673;28;20813;-82
2023/09/21 08:27:29;;;;;;;2.78;1.42;;;;;;;21.93;57.29;99386.09;5049554;28;20216;-82
2023/09/21 08:29:57;;;;;;;2.78;1.73;;;;;;;21.94;57.37;99379.66;5049133;28;20290;-80
2023/09/21 08:32:25;;;;;;;2.50;1.27;;;;;;;21.94;57.10;99385.06;5051205;28;20209;-81
2023/09/21 08:34:52;;;;;;;1.85;1.50;;;;;;;21.93;56.90;99382.56;5051650;28;20228;-82
2023/09/21 08:37:18;;;;;;;2.38;1.77;;;;;;;21.86;56.69;99371.66;5053026;28;20784;-81
2023/09/21 08:39:45;;;;;;;1.95;1.20;;;;;;;21.79;57.20;99370.81;5056533;28;20229;-81
2023/09/21 08:42:12;;;;;;;3.58;1.70;;;;;;;21.78;57.54;99379.97;5056436;28;20213;-81
2023/09/21 08:44:40;;;;;;;2.22;1.60;;;;;;;21.77;57.79;99379.16;5049974;28;20586;-80
2023/09/21 08:47:13;;;;;;;1.60;1.45;;;;;;;21.76;57.83;99395.59;5049982;28;20212;-81
2023/09/21 08:49:45;;;;;;;1.67;1.23;;;;;;;21.73;57.74;99391.41;5051069;28;20236;-81
2023/09/21 08:52:12;;;;;;;3.10;1.38;;;;;;;21.72;57.78;99392.44;5050561;28;20296;-81
2023/09/21 08:54:41;;;;;;;2.75;1.77;;;;;;;21.72;57.63;99397.03;5051708;28;20485;-84
2023/09/21 08:57:11;;;;;;;2.90;1.60;;;;;;;21.72;58.15;99402.44;5055055;28;20670;-81
2023/09/21 08:59:41;;;;;;;2.10;1.48;;;;;;;21.71;58.32;99395.34;5052742;28;20221;-82
2023/09/21 09:02:11;;;;;;;2.97;1.38;;;;;;;21.70;58.30;99388.25;5052706;28;20214;-81
2023/09/21 09:04:37;;;;;;;1.67;1.20;;;;;;;21.70;58.76;99388.25;5055614;28;20240;-81
2023/09/21 09:07:05;;;;;;;2.53;1.60;;;;;;;21.66;58.97;99378.88;5052695;28;20209;-81
2023/09/21 09:09:32;;;;;;;2.22;1.55;;;;;;;21.66;59.34;99387.00;5056031;28;20243;-83
2023/09/21 09:11:59;;;;;;;2.45;1.48;;;;;;;21.67;59.92;99391.41;5054388;28;20216;-83
2023/09/21 09:14:25;;;;;;;2.28;1.63;;;;;;;21.68;59.89;99379.50;5055874;28;20253;-82
2023/09/21 09:16:52;;;;;;;2.47;1.60;;;;;;;21.72;60.01;99386.19;5049707;28;20208;-81
2023/09/21 09:19:18;;;;;;;1.80;1.40;;;;;;;21.77;59.89;99400.00;5051883;28;20233;-81
2023/09/21 09:21:45;;;;;;;1.85;1.33;;;;;;;21.82;59.63;99381.25;5049177;28;20205;-81
2023/09/21 09:24:14;;;;;;;4.25;1.25;;;;;;;21.87;58.88;99386.06;5053613;28;20201;-82
2023/09/21 09:26:42;;;;;;;1.70;1.33;;;;;;;21.90;59.40;99375.66;5052232;28;20208;-80
2023/09/21 09:29:12;;;;;;;3.22;1.50;;;;;;;21.97;59.55;99363.00;5055289;28;20275;-83
2023/09/21 09:31:41;;;;;;;2.28;1.45;;;;;;;22.06;59.25;99366.38;5058918;28;20247;-80
2023/09/21 09:34:09;;;;;;;3.70;1.73;;;;;;;22.14;58.00;99361.63;5054340;28;20224;-80
2023/09/21 09:36:37;;;;;;;2.58;1.50;;;;;;;22.24;57.71;99358.53;5056888;28;20205;-80
2023/09/21 09:39:08;;;;;;;2.38;1.58;;;;;;;22.26;57.86;99358.31;5052011;28;20256;-81
2023/09/21 09:41:36;;;;;;;1.83;1.40;;;;;;;22.32;57.88;99360.22;5044820;28;20205;-81
2023/09/21 09:44:07;;;;;;;1.85;1.40;;;;;;;22.38;57.76;99354.00;5050093;28;20669;-80
2023/09/21 09:46:35;;;;;;;2.60;1.45;;;;;;;22.42;57.40;99342.50;5051837;28;20197;-81
2023/09/21 09:49:03;;;;;;;2.70;1.10;;;;;;;22.44;56.65;99351.28;5056463;28;20221;-80
2023/09/21 09:51:38;;;;;;;2.22;1.40;;;;;;;22.50;56.45;99352.34;5049980;28;20235;-82
2023/09/21 09:54:05;;;;;;;1.63;1.27;;;;;;;22.55;55.88;99349.88;5052090;28;20212;-80
2023/09/21 09:56:34;;;;;;;2.13;1.08;;;;;;;22.65;55.49;99347.56;5050169;28;20197;-82
2023/09/21 09:59:04;;;;;;;1.52;1.30;;;;;;;22.72;55.02;99348.44;5050457;28;20233;-80
2023/09/21 10:01:36;;;;;;;1.45;1.10;;;;;;;22.82;55.59;99348.88;5050638;28;20208;-79
2023/09/21 10:04:06;;;;;;;3.53;1.48;;;;;;;23.01;55.41;99344.50;5056368;28;20257;-81
2023/09/21 10:06:35;;;;;;;3.78;1.40;;;;;;;23.17;55.00;99351.38;5044305;28;20209;-80
2023/09/21 10:09:03;;;;;;;1.48;1.13;;;;;;;23.34;55.02;99343.63;5048001;28;20284;-81
2023/09/21 10:11:30;;;;;;;4.35;1.60;;;;;;;23.49;54.74;99355.94;5049276;28;20716;-80
2023/09/21 10:13:57;;;;;;;3.42;1.67;;;;;;;23.65;54.22;99340.25;5047939;28;20229;-82
2023/09/21 10:16:26;;;;;;;2.22;1.15;;;;;;;23.80;52.88;99343.59;5050353;28;20209;-82
2023/09/21 10:18:57;;;;;;;2.75;1.40;;;;;;;23.89;53.57;99337.69;5045532;28;20224;-83
2023/09/21 10:21:24;;;;;;;2.60;1.63;;;;;;;24.03;53.43;99338.47;5054036;28;20182;-82
2023/09/21 10:24:03;;;;;;;4.30;1.40;;;;;;;24.12;52.34;99339.91;5059910;28;20225;-82
2023/09/21 10:26:34;;;;;;;1.92;1.40;;;;;;;24.22;52.86;99333.97;5053729;28;20205;-82
2023/09/21 10:29:08;;;;;;;1.70;1.20;;;;;;;24.28;52.44;99343.19;5052469;28;20290;-82
2023/09/21 10:31:39;;;;;;;5.00;1.30;;;;;;;24.34;52.12;99339.63;5045368;28;20717;-82
2023/09/21 10:34:09;;;;;;;1.77;1.35;;;;;;;24.33;51.81;99335.22;5047687;28;20693;-82
2023/09/21 10:36:40;;;;;;;1.63;1.23;;;;;;;24.34;52.50;99337.72;5039030;28;20288;-82
2023/09/21 10:39:24;;;;;;;1.52;1.13;;;;;;;24.36;52.30;99330.19;5049447;28;20351;-82
2023/09/21 10:41:52;;;;;;;2.90;1.23;;;;;;;24.38;52.60;99329.94;5049194;28;20202;-83
2023/09/21 10:44:52;;;;;;;2.83;1.23;;;;;;;24.40;51.70;99330.56;5040341;28;20220;-82
2023/09/21 10:47:26;;;;;;;3.47;1.73;;;;;;;24.46;52.47;99322.38;5042120;28;20259;-81
2023/09/21 10:49:52;;;;;;;2.55;1.20;;;;;;;24.43;51.82;99325.53;5040444;28;20601;-81
2023/09/21 10:52:19;;;;;;;4.75;1.30;;;;;;;24.45;51.89;99314.41;5048471;28;20209;-81
2023/09/21 10:54:47;;;;;;;3.80;1.48;;;;;;;24.47;51.97;99310.44;5049621;28;20240;-82
2023/09/21 10:57:13;;;;;;;2.05;1.20;;;;;;;24.49;52.38;99313.78;5049238;28;20221;-82
2023/09/21 10:59:43;;;;;;;1.90;1.20;;;;;;;24.51;52.96;99310.84;5048703;28;20217;-82
2023/09/21 11:02:10;;;;;;;2.80;1.45;;;;;;;24.55;51.45;99309.31;5048255;28;20201;-82
2023/09/21 11:04:38;;;;;;;3.38;1.02;;;;;;;24.61;52.49;99303.00;5050769;28;20206;-82
2023/09/21 11:07:05;;;;;;;1.48;1.25;;;;;;;24.67;53.35;99302.13;5050302;28;20205;-82
2023/09/21 11:09:32;;;;;;;2.03;1.35;;;;;;;24.71;51.87;99287.03;5045347;28;20225;-82
2023/09/21 11:12:06;;;;;;;1.83;1.25;;;;;;;24.73;51.72;99290.34;5050152;28;20251;-81
2023/09/21 11:14:33;;;;;;;1.33;1.20;;;;;;;24.69;51.77;99296.47;5048064;28;20259;-82
2023/09/21 11:17:16;;;;;;;1.58;1.10;;;;;;;24.66;52.31;99296.91;5047859;28;20281;-82
2023/09/21 11:20:09;;;;;;;2.15;1.10;;;;;;;24.67;51.71;99301.28;5051274;28;20316;-81
2023/09/21 11:22:45;;;;;;;4.55;1.27;;;;;;;24.62;51.91;99303.84;5045975;28;20288;-82
2023/09/21 11:25:14;;;;;;;2.10;1.20;;;;;;;24.56;51.96;99295.50;5049388;28;20316;-81
2023/09/21 11:27:41;;;;;;;1.75;1.10;;;;;;;24.54;52.02;99294.06;5046018;28;20253;-81
2023/09/21 11:30:10;;;;;;;1.85;1.27;;;;;;;24.51;52.45;99283.63;5043413;28;20229;-82
2023/09/21 11:32:43;;;;;;;2.15;1.20;;;;;;;24.48;52.10;99278.59;5053385;28;20291;-81
2023/09/21 11:35:11;;;;;;;2.42;1.10;;;;;;;24.45;52.53;99268.16;5048054;28;20260;-81
2023/09/21 11:37:38;;;;;;;1.52;1.05;;;;;;;24.46;52.75;99270.66;5050311;28;20224;-82